createdAt,value
2016-11-21T00:02:27.295Z,10.69
2016-11-21T00:05:23.423Z,10.70
2016-11-21T00:08:19.559Z,10.72
2016-11-21T00:11:15.649Z,10.72
2016-11-21T00:14:11.642Z,10.71
2016-11-21T00:17:07.733Z,10.69
2016-11-21T00:20:03.843Z,10.67
2016-11-21T00:22:59.965Z,10.64
2016-11-21T00:25:56.125Z,10.63
2016-11-21T00:28:52.147Z,10.62
2016-11-21T00:31:48.235Z,10.63
2016-11-21T00:34:44.355Z,10.62
2016-11-21T00:37:40.564Z,10.59
2016-11-21T00:40:36.582Z,10.56
2016-11-21T00:43:32.651Z,10.56
2016-11-21T00:46:28.725Z,10.54
2016-11-21T00:49:24.861Z,10.55
2016-11-21T00:52:20.915Z,10.55
2016-11-21T00:55:17.094Z,10.55
2016-11-21T00:58:13.168Z,10.55
2016-11-21T01:01:09.358Z,10.55
2016-11-21T01:04:05.362Z,10.56
2016-11-21T01:07:01.531Z,10.58
2016-11-21T01:09:57.575Z,10.59
2016-11-21T01:12:53.670Z,10.58
2016-11-21T01:15:49.676Z,10.57
2016-11-21T01:18:45.740Z,10.57
2016-11-21T01:21:41.796Z,10.59
2016-11-21T01:24:37.944Z,10.59
2016-11-21T01:27:33.983Z,10.59
2016-11-21T01:30:30.177Z,10.57
2016-11-21T01:33:26.171Z,10.57
2016-11-21T01:36:22.386Z,10.58
2016-11-21T01:39:18.464Z,10.57
2016-11-21T01:42:14.633Z,10.57
2016-11-21T01:45:10.686Z,10.57
2016-11-21T01:48:06.783Z,10.58
2016-11-21T01:51:02.992Z,10.57
2016-11-21T01:53:59.154Z,10.57
2016-11-21T01:56:55.222Z,10.58
2016-11-21T01:59:51.384Z,10.57
2016-11-21T02:02:47.588Z,10.56
2016-11-21T02:05:43.755Z,10.55
2016-11-21T02:08:39.900Z,10.55
2016-11-21T02:11:36.078Z,10.52
2016-11-21T02:14:32.194Z,10.51
2016-11-21T02:17:28.332Z,10.53
2016-11-21T02:20:24.518Z,10.53
2016-11-21T02:23:20.684Z,10.52
2016-11-21T02:26:16.822Z,10.55
2016-11-21T02:29:13.007Z,10.57
2016-11-21T02:32:09.033Z,10.59
2016-11-21T02:35:05.221Z,10.60
2016-11-21T02:38:01.373Z,10.60
2016-11-21T02:40:57.492Z,10.60
2016-11-21T02:43:53.600Z,10.57
2016-11-21T02:46:49.770Z,10.54
2016-11-21T02:49:45.899Z,10.48
2016-11-21T02:52:42.078Z,10.42
2016-11-21T02:55:38.197Z,10.35
2016-11-21T02:58:34.252Z,10.32
2016-11-21T03:01:30.278Z,10.27
2016-11-21T03:04:26.439Z,10.23
2016-11-21T03:07:22.591Z,10.18
2016-11-21T03:10:18.730Z,10.16
2016-11-21T03:13:14.794Z,10.11
2016-11-21T03:16:10.971Z,10.07
2016-11-21T03:19:07.117Z,10.03
2016-11-21T03:22:03.267Z,10.00
2016-11-21T03:24:59.304Z,9.98
2016-11-21T03:27:55.520Z,9.96
2016-11-21T03:30:51.556Z,9.90
2016-11-21T03:33:47.746Z,9.84
2016-11-21T03:36:43.875Z,9.81
2016-11-21T03:39:40.095Z,9.80
2016-11-21T03:42:36.149Z,9.79
2016-11-21T03:45:32.391Z,9.76
2016-11-21T03:48:28.609Z,9.72
2016-11-21T03:51:24.768Z,9.70
2016-11-21T03:54:20.790Z,9.67
2016-11-21T03:57:17.022Z,9.66
2016-11-21T04:00:13.117Z,9.65
2016-11-21T04:03:09.321Z,9.66
2016-11-21T04:06:05.555Z,9.65
2016-11-21T04:09:01.699Z,9.60
2016-11-21T04:11:58.216Z,9.56
2016-11-21T04:14:53.935Z,9.50
2016-11-21T04:17:50.058Z,9.44
2016-11-21T04:20:46.197Z,9.40
2016-11-21T04:23:42.341Z,9.36
2016-11-21T04:26:38.576Z,9.32
2016-11-21T04:29:34.747Z,9.30
2016-11-21T04:32:31.369Z,9.28
2016-11-21T04:35:27.502Z,9.25
2016-11-21T04:38:23.841Z,9.19
2016-11-21T04:41:19.964Z,9.15
2016-11-21T04:44:16.224Z,9.15
2016-11-21T04:47:12.327Z,9.10
2016-11-21T04:50:08.627Z,9.06
2016-11-21T04:53:04.835Z,9.01
2016-11-21T04:56:00.944Z,8.96
2016-11-21T04:58:57.018Z,8.90
2016-11-21T05:01:53.217Z,8.85
2016-11-21T05:04:49.254Z,8.83
2016-11-21T19:45:40.774Z,15.15
2016-11-21T19:48:33.556Z,16.04
2016-11-21T19:51:32.211Z,14.37
2016-11-21T19:54:30.993Z,13.08
2016-11-21T19:57:29.990Z,12.21
2016-11-21T20:00:29.045Z,11.69
2016-11-21T20:03:28.275Z,11.34
2016-11-21T20:06:27.573Z,11.16
2016-11-21T20:09:26.948Z,11.05
2016-11-21T20:12:26.262Z,10.96
2016-11-21T20:15:25.588Z,10.87
2016-11-21T20:18:25.031Z,10.83
2016-11-21T20:21:24.444Z,10.80
2016-11-21T20:24:23.845Z,10.77
2016-11-21T20:27:23.239Z,10.78
2016-11-21T20:30:22.684Z,10.81
2016-11-21T20:33:22.123Z,10.83
2016-11-21T20:36:21.599Z,10.88
2016-11-21T20:39:21.033Z,10.85
2016-11-21T20:42:20.438Z,10.84
2016-11-21T20:45:20.016Z,10.81
2016-11-21T20:48:19.446Z,10.81
2016-11-21T20:51:18.979Z,10.82
2016-11-21T20:54:18.400Z,10.85
2016-11-21T20:57:17.898Z,10.86
2016-11-21T21:00:17.260Z,10.88
2016-11-21T21:03:16.638Z,10.89
2016-11-21T21:06:16.107Z,10.91
2016-11-21T21:09:15.574Z,10.92
2016-11-21T21:12:15.075Z,10.95
2016-11-21T21:15:14.560Z,10.94
2016-11-21T21:18:14.017Z,10.94
2016-11-21T21:21:13.541Z,10.94
2016-11-21T21:24:13.571Z,10.93
2016-11-21T21:27:13.122Z,10.92
2016-11-21T21:30:12.586Z,10.92
2016-11-21T21:33:12.152Z,10.93
2016-11-21T21:36:12.034Z,10.95
2016-11-21T21:39:11.638Z,10.96
2016-11-21T21:42:11.186Z,10.98
2016-11-21T21:45:10.680Z,10.98
2016-11-21T21:48:10.118Z,10.98
2016-11-21T21:51:09.723Z,10.98
2016-11-21T21:54:09.198Z,10.96
2016-11-21T21:57:08.748Z,10.95
2016-11-21T22:00:08.242Z,10.95
2016-11-21T22:03:07.991Z,10.94
2016-11-21T22:06:07.557Z,10.93
2016-11-21T22:09:07.062Z,10.95
2016-11-21T22:12:06.585Z,10.95
2016-11-21T22:15:06.165Z,10.97
2016-11-21T22:18:05.617Z,10.98
2016-11-21T22:21:05.175Z,11.01
2016-11-21T22:24:04.705Z,11.02
2016-11-21T22:27:04.781Z,11.03
2016-11-21T22:30:04.240Z,11.06
2016-11-21T22:33:03.739Z,11.09
2016-11-21T22:36:03.242Z,11.10
2016-11-21T22:39:02.756Z,11.11
2016-11-21T22:42:02.310Z,11.10
2016-11-21T22:45:01.927Z,11.09
2016-11-21T22:48:01.527Z,11.08
2016-11-21T22:51:00.967Z,11.06
2016-11-21T22:54:00.521Z,11.04
2016-11-21T22:57:00.060Z,11.04
2016-11-21T22:59:59.603Z,11.03
2016-11-21T23:02:59.189Z,11.02
2016-11-21T23:05:58.661Z,11.01
2016-11-21T23:08:58.172Z,10.99
2016-11-21T23:11:57.618Z,10.98
2016-11-21T23:14:57.198Z,10.97
2016-11-21T23:17:56.720Z,10.96
2016-11-21T23:20:56.374Z,10.96
2016-11-21T23:23:55.783Z,10.94
2016-11-21T23:26:55.247Z,10.91
2016-11-21T23:29:54.624Z,10.88
2016-11-21T23:32:54.150Z,10.86
2016-11-21T23:35:53.716Z,10.86
2016-11-21T23:38:53.847Z,10.87
2016-11-21T23:41:53.367Z,10.89
2016-11-21T23:44:52.933Z,10.91
2016-11-21T23:47:52.498Z,10.93
2016-11-21T23:50:51.978Z,10.96
2016-11-21T23:53:51.536Z,10.98
2016-11-21T23:56:51.034Z,11.01
2016-11-21T23:59:50.523Z,11.03
